Time;durP1;ratioP1;P1;durP2;ratioP2;P2;SDS_P1;SDS_P2;PMS_P1;PMS_P2;Temp;Humidity;BMP_temperature;BMP_pressure;BME280_temperature;BME280_humidity;BME280_pressure;Samples;Min_cycle;Max_cycle;Signal;HPM_P1;HPM_P2
2021/04/27 00:00:40;;;;;;;2.07;0.60;;;18.30;99.90;;;;;;5118216;28;20222;-90
2021/04/27 00:03:11;;;;;;;1.60;0.67;;;18.20;99.90;;;;;;5117070;28;20610;-90
2021/04/27 00:05:42;;;;;;;0.50;0.50;;;18.20;99.90;;;;;;5117854;28;20206;-90
2021/04/27 00:08:13;;;;;;;0.60;0.60;;;18.10;99.90;;;;;;5117038;28;20249;-89
2021/04/27 00:10:46;;;;;;;1.83;0.63;;;18.10;99.90;;;;;;5117968;28;20259;-89
2021/04/27 00:13:16;;;;;;;1.27;0.50;;;17.90;99.90;;;;;;5121815;28;20210;-91
2021/04/27 00:15:47;;;;;;;0.70;0.70;;;17.90;99.90;;;;;;5118303;28;20557;-89
2021/04/27 00:18:18;;;;;;;0.97;0.60;;;17.80;99.90;;;;;;5083557;28;20221;-88
2021/04/27 00:20:48;;;;;;;1.20;0.50;;;17.70;99.90;;;;;;5117375;28;20377;-89
2021/04/27 00:23:19;;;;;;;0.70;0.63;;;17.80;99.90;;;;;;5119345;28;20712;-88
2021/04/27 00:25:52;;;;;;;1.53;0.70;;;17.90;99.90;;;;;;5115824;28;20321;-88
2021/04/27 00:28:22;;;;;;;0.60;0.60;;;18.00;99.90;;;;;;5116681;28;20213;-88
2021/04/27 00:30:52;;;;;;;1.63;0.57;;;18.10;99.90;;;;;;5116937;28;20296;-88
2021/04/27 00:33:22;;;;;;;2.40;0.70;;;18.10;99.90;;;;;;5118190;28;20671;-89
2021/04/27 00:35:53;;;;;;;0.50;0.50;;;18.20;99.90;;;;;;5115943;28;20651;-88
2021/04/27 00:38:23;;;;;;;0.60;0.60;;;18.00;99.90;;;;;;5118141;28;20217;-88
2021/04/27 00:40:56;;;;;;;1.20;0.63;;;17.50;99.90;;;;;;5120117;28;20206;-90
2021/04/27 00:43:26;;;;;;;1.20;0.77;;;17.40;99.90;;;;;;5116696;28;20235;-90
2021/04/27 00:45:57;;;;;;;1.00;0.70;;;17.10;99.90;;;;;;5116868;28;20234;-90
2021/04/27 00:48:28;;;;;;;0.50;0.50;;;16.80;99.90;;;;;;5117741;28;20727;-91
2021/04/27 00:50:58;;;;;;;0.87;0.43;;;16.50;99.90;;;;;;5120843;28;20654;-91
2021/04/27 00:53:29;;;;;;;0.67;0.67;;;16.10;99.90;;;;;;5117508;28;20214;-91
2021/04/27 00:56:02;;;;;;;0.87;0.50;;;16.00;99.90;;;;;;5095970;28;20203;-92
2021/04/27 00:58:33;;;;;;;0.80;0.67;;;15.80;99.90;;;;;;5097334;28;20207;-91
2021/04/27 01:01:04;;;;;;;1.03;0.80;;;15.60;99.90;;;;;;5099324;28;20203;-92
2021/04/27 01:03:34;;;;;;;1.30;0.50;;;15.50;99.90;;;;;;5097603;28;20238;-92
2021/04/27 01:06:05;;;;;;;0.60;0.50;;;15.40;99.90;;;;;;5096117;28;20234;-90
2021/04/27 01:08:44;;;;;;;1.23;0.87;;;15.70;99.90;;;;;;5096411;28;20245;-91
2021/04/27 01:11:24;;;;;;;1.23;0.60;;;16.10;99.90;;;;;;5096748;28;20621;-91
2021/04/27 01:14:05;;;;;;;1.87;0.63;;;16.10;99.90;;;;;;5098660;28;20207;-90
2021/04/27 01:16:42;;;;;;;1.00;0.60;;;16.20;99.90;;;;;;5094782;28;20314;-88
2021/04/27 01:19:18;;;;;;;0.93;0.70;;;16.90;99.90;;;;;;5096294;28;20203;-88
2021/04/27 01:21:49;;;;;;;0.80;0.70;;;17.70;99.90;;;;;;5095590;28;20246;-88
2021/04/27 01:24:27;;;;;;;0.70;0.70;;;18.30;99.90;;;;;;5078634;28;20268;-89
2021/04/27 01:27:02;;;;;;;0.60;0.60;;;18.60;99.90;;;;;;5062148;28;20209;-89
2021/04/27 01:29:35;;;;;;;0.70;0.70;;;19.00;99.90;;;;;;5095627;28;20245;-88
2021/04/27 01:32:07;;;;;;;0.63;0.60;;;19.40;99.90;;;;;;5078470;28;20225;-89
2021/04/27 01:34:40;;;;;;;0.60;0.47;;;19.70;99.90;;;;;;5095805;28;20651;-89
2021/04/27 01:37:11;;;;;;;0.83;0.60;;;19.90;99.90;;;;;;5095971;28;20203;-90
2021/04/27 01:39:42;;;;;;;1.50;0.70;;;18.90;99.90;;;;;;5115443;28;20210;-90
2021/04/27 01:42:16;;;;;;;1.70;0.60;;;19.20;99.90;;;;;;5122180;28;20287;-90
2021/04/27 01:44:47;;;;;;;0.90;0.60;;;19.70;99.90;;;;;;5119741;28;20237;-93
2021/04/27 01:47:18;;;;;;;1.43;0.60;;;18.90;99.90;;;;;;5115250;28;20729;-91
2021/04/27 01:49:48;;;;;;;1.60;0.53;;;18.60;99.90;;;;;;5116087;28;20206;-91
2021/04/27 01:52:18;;;;;;;0.63;0.40;;;18.80;99.90;;;;;;5117224;28;20210;-92
2021/04/27 01:54:48;;;;;;;1.07;0.57;;;18.40;99.90;;;;;;5119038;28;20202;-92
2021/04/27 01:57:21;;;;;;;1.03;0.57;;;18.60;99.90;;;;;;5115444;28;20229;-91
2021/04/27 01:59:52;;;;;;;0.57;0.53;;;18.60;99.90;;;;;;5116313;28;20259;-91
2021/04/27 02:02:23;;;;;;;0.57;0.50;;;18.50;99.90;;;;;;5116135;28;20242;-91
2021/04/27 02:04:54;;;;;;;0.53;0.40;;;18.00;99.90;;;;;;5130979;28;20257;-92
2021/04/27 02:07:25;;;;;;;0.77;0.50;;;17.40;99.90;;;;;;5131943;28;20261;-91
2021/04/27 02:09:55;;;;;;;1.93;0.40;;;17.00;99.90;;;;;;5108081;28;20223;-91
2021/04/27 02:12:31;;;;;;;1.63;0.50;;;16.40;99.90;;;;;;5120611;28;20202;-91
2021/04/27 02:15:02;;;;;;;0.70;0.57;;;15.80;99.90;;;;;;5116710;28;20277;-93
2021/04/27 02:17:39;;;;;;;1.17;0.70;;;15.50;99.90;;;;;;5101853;28;20572;-91
2021/04/27 02:20:12;;;;;;;0.40;0.40;;;15.30;99.90;;;;;;5115613;28;20546;-90
2021/04/27 02:22:46;;;;;;;0.97;0.60;;;15.20;99.90;;;;;;5096580;28;20303;-91
2021/04/27 02:25:18;;;;;;;1.33;0.50;;;15.00;99.90;;;;;;5115650;28;20235;-91
2021/04/27 02:27:52;;;;;;;0.47;0.43;;;14.80;99.90;;;;;;5115810;28;20239;-90
2021/04/27 02:30:24;;;;;;;1.10;1.00;;;14.70;99.90;;;;;;5115479;28;20285;-91
2021/04/27 02:32:56;;;;;;;0.60;0.60;;;14.60;99.90;;;;;;5122802;28;20201;-91
2021/04/27 02:35:26;;;;;;;2.20;0.60;;;14.50;99.90;;;;;;5110211;28;20198;-90
2021/04/27 02:37:55;;;;;;;1.77;0.87;;;14.50;99.90;;;;;;5132416;28;20213;-91
2021/04/27 02:40:27;;;;;;;2.00;1.20;;;14.30;99.90;;;;;;5128370;28;20543;-90
2021/04/27 02:43:01;;;;;;;1.50;1.00;;;14.20;99.90;;;;;;5126599;28;20279;-91
2021/04/27 02:45:35;;;;;;;2.07;0.97;;;14.10;99.90;;;;;;5114780;28;20199;-90
2021/04/27 02:48:11;;;;;;;1.10;1.00;;;14.00;99.90;;;;;;5102185;28;20199;-92
2021/04/27 02:50:44;;;;;;;1.00;0.70;;;13.90;99.90;;;;;;5115554;28;20220;-90
2021/04/27 02:53:16;;;;;;;1.93;1.07;;;13.80;99.90;;;;;;5107106;28;20259;-91
2021/04/27 02:55:48;;;;;;;3.03;2.50;;;13.60;99.90;;;;;;5124540;28;20221;-91
2021/04/27 02:58:22;;;;;;;1.40;0.90;;;13.50;99.90;;;;;;5125334;28;20227;-92
2021/04/27 03:00:54;;;;;;;0.60;0.60;;;13.50;99.90;;;;;;5124773;28;20221;-91
2021/04/27 03:03:25;;;;;;;0.70;0.70;;;13.40;99.90;;;;;;5126400;28;20292;-91
2021/04/27 03:05:56;;;;;;;1.10;0.60;;;13.30;99.90;;;;;;5125732;28;20198;-92
2021/04/27 03:08:27;;;;;;;1.60;0.60;;;13.10;99.90;;;;;;5105894;28;20198;-92
2021/04/27 03:10:57;;;;;;;1.53;0.53;;;13.10;99.90;;;;;;5123160;28;20232;-91
2021/04/27 03:13:30;;;;;;;0.67;0.60;;;12.90;99.90;;;;;;5119713;28;20270;-92
2021/04/27 03:16:00;;;;;;;0.70;0.53;;;12.80;99.90;;;;;;5122051;28;20271;-91
2021/04/27 03:18:32;;;;;;;1.57;1.00;;;12.70;99.90;;;;;;5120725;28;20205;-90
2021/04/27 03:21:03;;;;;;;1.60;0.70;;;12.60;99.90;;;;;;5120660;28;20239;-91
2021/04/27 03:23:34;;;;;;;1.87;0.50;;;12.50;99.90;;;;;;5118840;28;20306;-89
2021/04/27 03:26:05;;;;;;;1.07;0.73;;;12.40;99.90;;;;;;5124504;28;20235;-90
2021/04/27 03:28:38;;;;;;;0.87;0.70;;;12.30;99.90;;;;;;5118679;28;20205;-90
2021/04/27 03:31:09;;;;;;;1.03;0.80;;;12.30;99.90;;;;;;5100788;28;20244;-90
2021/04/27 03:33:40;;;;;;;1.67;0.70;;;12.20;99.90;;;;;;5118402;28;20238;-90
2021/04/27 03:36:11;;;;;;;0.70;0.70;;;12.10;99.90;;;;;;5101407;28;20202;-90
2021/04/27 03:38:42;;;;;;;0.70;0.70;;;11.90;99.90;;;;;;5097767;28;20678;-90
2021/04/27 03:41:12;;;;;;;1.63;0.67;;;11.80;99.90;;;;;;5098393;28;20234;-90
2021/04/27 03:43:45;;;;;;;1.00;0.73;;;11.70;99.90;;;;;;5097066;28;20266;-90
2021/04/27 03:46:16;;;;;;;1.60;0.77;;;11.60;99.90;;;;;;5107595;28;20198;-91
2021/04/27 03:48:45;;;;;;;0.77;0.70;;;11.60;99.90;;;;;;5118193;28;20210;-91
2021/04/27 03:51:17;;;;;;;1.23;0.90;;;11.40;99.90;;;;;;5102348;28;20208;-91
2021/04/27 03:53:47;;;;;;;1.00;0.77;;;11.30;99.90;;;;;;5101313;28;20658;-91
2021/04/27 03:56:17;;;;;;;1.40;1.00;;;11.20;99.90;;;;;;5117483;28;20222;-91
2021/04/27 03:58:48;;;;;;;2.33;0.90;;;11.20;99.90;;;;;;5100156;28;20213;-91
2021/04/27 04:01:19;;;;;;;1.20;0.80;;;11.10;99.90;;;;;;5117249;28;20202;-91
2021/04/27 04:03:50;;;;;;;0.77;0.63;;;11.10;99.90;;;;;;5117562;28;20283;-91
2021/04/27 04:06:20;;;;;;;2.60;1.20;;;11.00;99.90;;;;;;5117044;28;20245;-91
2021/04/27 04:08:50;;;;;;;1.17;0.90;;;11.00;99.90;;;;;;5118477;28;20202;-91
2021/04/27 04:11:21;;;;;;;2.73;1.20;;;10.90;99.90;;;;;;5117667;28;20209;-91
2021/04/27 04:13:54;;;;;;;1.73;1.20;;;10.90;99.90;;;;;;5121446;28;20341;-90
2021/04/27 04:16:24;;;;;;;1.47;1.17;;;10.90;99.90;;;;;;5116356;28;20218;-89
2021/04/27 04:18:54;;;;;;;2.40;1.17;;;10.90;99.90;;;;;;5117989;28;20226;-90
2021/04/27 04:21:26;;;;;;;3.23;1.20;;;10.90;99.90;;;;;;5117835;28;20198;-90
2021/04/27 04:23:58;;;;;;;1.30;1.20;;;10.80;99.90;;;;;;5117514;28;20225;-90
2021/04/27 04:26:29;;;;;;;2.87;1.17;;;10.70;99.90;;;;;;5121544;28;20190;-90
2021/04/27 04:29:01;;;;;;;1.80;1.20;;;10.60;99.90;;;;;;5103020;28;20195;-91
2021/04/27 04:31:32;;;;;;;1.50;0.97;;;10.60;99.90;;;;;;5131948;28;20202;-90
2021/04/27 04:34:03;;;;;;;0.80;0.80;;;10.60;99.90;;;;;;5130160;28;20233;-90
2021/04/27 04:36:34;;;;;;;2.20;1.20;;;10.60;99.90;;;;;;5125452;28;20233;-90
2021/04/27 04:39:06;;;;;;;2.47;1.60;;;10.60;99.90;;;;;;5118772;28;20203;-90
2021/04/27 04:41:37;;;;;;;5.93;4.80;;;10.60;99.90;;;;;;5100217;28;20209;-90
2021/04/27 04:44:10;;;;;;;5.20;4.60;;;10.60;99.90;;;;;;5116997;28;20230;-91
2021/04/27 04:46:41;;;;;;;2.53;2.07;;;10.60;99.90;;;;;;5115925;28;20709;-91
2021/04/27 04:49:12;;;;;;;2.43;1.80;;;10.60;99.90;;;;;;5117043;28;20206;-91
2021/04/27 04:51:42;;;;;;;1.77;1.50;;;10.60;99.90;;;;;;5116972;28;20262;-91
2021/04/27 04:54:13;;;;;;;1.57;1.17;;;10.60;99.90;;;;;;5116963;28;20260;-90
2021/04/27 04:56:44;;;;;;;2.07;1.40;;;10.60;99.90;;;;;;5115769;28;20206;-91
2021/04/27 04:59:16;;;;;;;1.37;1.27;;;10.60;99.90;;;;;;5116562;28;20226;-91
2021/04/27 05:01:47;;;;;;;2.33;1.40;;;10.60;99.90;;;;;;5116795;28;20263;-91
2021/04/27 05:04:18;;;;;;;2.17;1.50;;;10.60;99.90;;;;;;5116106;28;20230;-91
2021/04/27 05:06:50;;;;;;;3.13;1.13;;;10.50;99.90;;;;;;5116925;28;20202;-91
2021/04/27 05:09:21;;;;;;;1.20;1.10;;;10.40;99.90;;;;;;5119119;28;20237;-91
2021/04/27 05:11:52;;;;;;;1.40;1.20;;;10.40;99.90;;;;;;5116686;28;20293;-91
2021/04/27 05:14:24;;;;;;;1.30;1.00;;;10.40;99.90;;;;;;5116345;28;20208;-91
2021/04/27 05:16:55;;;;;;;3.47;1.07;;;10.30;99.90;;;;;;5115836;28;20230;-89
2021/04/27 05:19:26;;;;;;;1.30;1.07;;;10.40;99.90;;;;;;5098934;28;20213;-90
2021/04/27 05:21:57;;;;;;;2.10;1.07;;;10.30;99.90;;;;;;5116696;28;20568;-90
2021/04/27 05:24:27;;;;;;;1.57;0.90;;;10.30;99.90;;;;;;5116948;28;20291;-90
2021/04/27 05:26:58;;;;;;;1.33;0.90;;;10.30;99.90;;;;;;5114163;28;20656;-90
2021/04/27 05:29:31;;;;;;;1.33;1.00;;;10.40;99.90;;;;;;5105367;28;20286;-91
2021/04/27 05:32:02;;;;;;;1.40;0.83;;;10.40;99.90;;;;;;5095572;28;20289;-90
2021/04/27 05:34:33;;;;;;;1.17;0.93;;;10.40;99.90;;;;;;5095098;28;20207;-90
2021/04/27 05:37:04;;;;;;;1.10;0.90;;;10.40;99.90;;;;;;5096696;28;20253;-89
2021/04/27 05:39:35;;;;;;;1.00;0.70;;;10.40;99.90;;;;;;5097325;28;20211;-90
2021/04/27 05:42:06;;;;;;;1.27;0.77;;;10.50;99.90;;;;;;5097788;28;20203;-90
2021/04/27 05:44:38;;;;;;;1.73;0.90;;;10.50;99.90;;;;;;5096066;28;20239;-90
2021/04/27 05:47:08;;;;;;;2.10;0.90;;;10.50;99.90;;;;;;5094969;28;20286;-91
2021/04/27 05:49:39;;;;;;;1.00;0.90;;;10.60;99.90;;;;;;5096916;28;20211;-91
2021/04/27 05:52:10;;;;;;;1.73;0.90;;;10.60;99.90;;;;;;5094999;28;20242;-91
2021/04/27 05:54:41;;;;;;;1.77;1.00;;;10.60;99.90;;;;;;5095465;28;20207;-91
2021/04/27 05:57:11;;;;;;;1.00;0.90;;;10.60;99.90;;;;;;5098242;28;20279;-91
2021/04/27 05:59:44;;;;;;;1.53;0.93;;;10.70;99.90;;;;;;5095041;28;20600;-91
2021/04/27 06:02:14;;;;;;;2.37;1.00;;;10.70;99.90;;;;;;5094970;28;20260;-91
2021/04/27 06:04:45;;;;;;;1.23;0.80;;;10.80;99.90;;;;;;5094863;28;20209;-91
2021/04/27 06:07:16;;;;;;;1.57;0.90;;;10.70;99.90;;;;;;5094875;28;20655;-91
2021/04/27 06:09:47;;;;;;;1.20;0.80;;;10.80;99.90;;;;;;5078050;28;20249;-91
2021/04/27 06:12:18;;;;;;;1.20;1.10;;;10.70;99.90;;;;;;5096478;28;20215;-91
2021/04/27 06:14:50;;;;;;;2.03;1.10;;;10.70;99.90;;;;;;5094497;28;20260;-92
2021/04/27 06:17:21;;;;;;;1.10;1.00;;;10.70;99.90;;;;;;5094941;28;20246;-90
2021/04/27 06:19:52;;;;;;;1.43;1.33;;;10.70;99.90;;;;;;5095212;28;20332;-90
2021/04/27 06:22:23;;;;;;;1.40;0.90;;;10.70;99.90;;;;;;5077037;28;20270;-90
2021/04/27 06:24:54;;;;;;;3.13;1.03;;;10.80;99.90;;;;;;5093523;28;20221;-90
2021/04/27 06:27:29;;;;;;;3.83;1.40;;;10.80;99.90;;;;;;5096388;28;20338;-90
2021/04/27 06:30:02;;;;;;;3.07;1.40;;;10.80;99.90;;;;;;5096065;28;20211;-90
2021/04/27 06:32:32;;;;;;;1.57;1.00;;;10.80;99.90;;;;;;5094925;28;20619;-90
2021/04/27 06:35:02;;;;;;;1.10;1.00;;;10.80;99.90;;;;;;5076695;28;20618;-90
2021/04/27 06:37:33;;;;;;;1.53;1.30;;;10.70;99.90;;;;;;5094452;28;20202;-90
2021/04/27 06:40:05;;;;;;;1.20;1.10;;;10.80;99.90;;;;;;5094930;28;20202;-90
2021/04/27 06:42:36;;;;;;;2.40;1.13;;;10.80;99.90;;;;;;5095208;28;20272;-90
2021/04/27 06:45:11;;;;;;;3.33;1.20;;;10.90;99.90;;;;;;5093978;28;20355;-90
2021/04/27 06:47:42;;;;;;;1.30;1.20;;;10.90;99.90;;;;;;5094174;28;20203;-91
2021/04/27 06:50:13;;;;;;;3.47;1.10;;;10.90;99.90;;;;;;5096310;28;20209;-91
2021/04/27 06:52:44;;;;;;;1.10;1.00;;;10.80;99.90;;;;;;5106571;28;20210;-91
2021/04/27 06:55:16;;;;;;;1.67;1.30;;;10.80;99.90;;;;;;5106312;28;20203;-91
2021/04/27 06:57:47;;;;;;;2.00;1.30;;;10.80;99.90;;;;;;5106865;28;20213;-91
2021/04/27 07:00:20;;;;;;;1.67;1.00;;;10.80;99.90;;;;;;5095171;28;20203;-91
2021/04/27 07:02:51;;;;;;;1.87;1.17;;;10.80;99.90;;;;;;5095494;28;20230;-91
2021/04/27 07:05:22;;;;;;;2.43;1.43;;;10.80;99.90;;;;;;5094142;28;20187;-91
2021/04/27 07:07:53;;;;;;;2.40;1.27;;;10.80;99.90;;;;;;5094323;28;20286;-92
2021/04/27 07:10:25;;;;;;;1.47;1.30;;;10.80;99.90;;;;;;5095054;28;20207;-91
2021/04/27 07:12:56;;;;;;;1.47;1.20;;;10.80;99.90;;;;;;5093953;28;20260;-90
2021/04/27 07:15:27;;;;;;;1.87;1.30;;;10.80;99.90;;;;;;5094192;28;20215;-91
2021/04/27 07:17:57;;;;;;;3.73;1.20;;;10.80;99.90;;;;;;5094193;28;20612;-90
2021/04/27 07:20:27;;;;;;;2.23;1.47;;;10.70;99.90;;;;;;5097255;28;20222;-90
2021/04/27 07:22:59;;;;;;;3.43;1.40;;;10.80;99.90;;;;;;5097746;28;20276;-90
2021/04/27 07:25:30;;;;;;;1.77;1.30;;;10.80;99.90;;;;;;5097214;28;20215;-90
2021/04/27 07:28:01;;;;;;;2.17;1.30;;;10.80;99.90;;;;;;5096428;28;20735;-91
2021/04/27 07:30:33;;;;;;;2.90;1.20;;;10.70;99.90;;;;;;5094731;28;20203;-91
2021/04/27 07:33:05;;;;;;;2.80;1.30;;;10.70;99.90;;;;;;5094072;28;20256;-89
2021/04/27 07:35:36;;;;;;;1.20;1.10;;;10.70;99.90;;;;;;5093545;28;20283;-90
2021/04/27 07:38:07;;;;;;;2.43;1.30;;;10.70;99.90;;;;;;5113110;28;20202;-90
2021/04/27 07:40:38;;;;;;;1.20;1.10;;;10.60;99.90;;;;;;5118645;27;20259;-90
2021/04/27 07:43:09;;;;;;;1.40;1.10;;;10.60;99.90;;;;;;5117668;28;20225;-90
2021/04/27 07:45:42;;;;;;;3.50;1.40;;;10.60;99.90;;;;;;5117857;28;20213;-90
2021/04/27 07:48:13;;;;;;;6.27;1.50;;;10.50;99.90;;;;;;5118472;28;20283;-91
2021/04/27 07:50:44;;;;;;;1.97;1.20;;;10.50;99.90;;;;;;5118199;28;20221;-91
2021/04/27 07:53:15;;;;;;;3.00;1.10;;;10.60;99.90;;;;;;5117607;28;20206;-91
2021/04/27 07:55:46;;;;;;;0.93;0.93;;;10.60;99.90;;;;;;5117320;28;20202;-91
2021/04/27 07:58:17;;;;;;;2.30;1.30;;;10.50;99.90;;;;;;5118113;27;20201;-92
2021/04/27 08:00:50;;;;;;;1.53;1.20;;;10.50;99.90;;;;;;5118020;28;20300;-91
2021/04/27 08:03:21;;;;;;;1.43;1.17;;;10.40;99.90;;;;;;5118120;28;20255;-91
2021/04/27 08:05:52;;;;;;;1.27;1.17;;;10.40;99.90;;;;;;5117029;28;20198;-91
2021/04/27 08:08:23;;;;;;;1.37;1.17;;;10.30;99.90;;;;;;5117872;28;20209;-91
2021/04/27 08:10:58;;;;;;;3.73;1.50;;;10.30;99.90;;;;;;5117271;28;20680;-91
2021/04/27 08:13:29;;;;;;;1.73;1.27;;;10.30;99.90;;;;;;5117168;27;20207;-91
2021/04/27 08:16:01;;;;;;;1.80;1.60;;;10.30;99.90;;;;;;5116265;28;20310;-91
2021/04/27 08:18:32;;;;;;;4.70;1.60;;;10.20;99.90;;;;;;5117327;28;20206;-90
2021/04/27 08:21:05;;;;;;;5.23;1.50;;;10.30;99.90;;;;;;5116914;28;20244;-90
2021/04/27 08:23:36;;;;;;;2.27;1.40;;;10.30;99.90;;;;;;5116987;28;20647;-90
2021/04/27 08:26:09;;;;;;;3.23;1.40;;;10.30;99.90;;;;;;5102764;28;20306;-89
2021/04/27 08:28:40;;;;;;;2.40;1.40;;;10.30;99.90;;;;;;5097008;28;20219;-90
2021/04/27 08:31:12;;;;;;;2.87;1.40;;;10.20;99.90;;;;;;5096569;28;20264;-90
2021/04/27 08:33:43;;;;;;;2.03;1.20;;;10.20;99.90;;;;;;5096604;28;20631;-90
2021/04/27 08:36:14;;;;;;;1.20;1.10;;;10.20;99.90;;;;;;5095642;28;20214;-91
2021/04/27 08:38:45;;;;;;;7.07;1.20;;;10.20;99.90;;;;;;5096907;28;20227;-90
2021/04/27 08:41:16;;;;;;;2.47;1.20;;;10.20;99.90;;;;;;5096734;28;20222;-90
2021/04/27 08:43:46;;;;;;;1.33;1.10;;;10.20;99.90;;;;;;5098531;28;20267;-90
2021/04/27 08:46:19;;;;;;;1.50;1.40;;;10.10;99.90;;;;;;5096020;28;20203;-91
2021/04/27 08:48:52;;;;;;;1.67;1.07;;;10.00;99.90;;;;;;5084745;28;20555;-91
2021/04/27 08:51:24;;;;;;;4.10;1.30;;;10.00;99.90;;;;;;5120179;28;20198;-91
2021/04/27 08:54:15;;;;;;;2.20;1.30;;;10.10;99.90;;;;;;5119498;28;20222;-91
2021/04/27 08:56:46;;;;;;;1.50;1.13;;;10.00;99.90;;;;;;5116984;28;20546;-91
2021/04/27 08:59:17;;;;;;;3.50;1.23;;;10.00;99.90;;;;;;5117620;28;20255;-91
2021/04/27 09:01:50;;;;;;;2.20;1.33;;;10.10;99.90;;;;;;5120904;28;20233;-91
2021/04/27 09:04:39;;;;;;;2.23;1.40;;;10.10;99.90;;;;;;5123806;28;20230;-90
2021/04/27 09:07:12;;;;;;;2.40;1.20;;;10.00;99.90;;;;;;5129703;28;20247;-90
2021/04/27 09:09:45;;;;;;;2.00;1.20;;;10.00;99.90;;;;;;5117608;28;20260;-91
2021/04/27 09:12:20;;;;;;;2.27;1.30;;;10.00;99.90;;;;;;5127767;28;20252;-91
2021/04/27 09:14:51;;;;;;;2.60;1.43;;;10.00;99.90;;;;;;5130482;28;20205;-92
2021/04/27 09:17:26;;;;;;;2.33;1.37;;;10.10;99.90;;;;;;5128590;28;20236;-90
2021/04/27 09:19:58;;;;;;;3.00;1.70;;;10.10;99.90;;;;;;5130888;28;20273;-89
2021/04/27 09:22:30;;;;;;;3.83;1.80;;;10.10;99.90;;;;;;5128726;28;20202;-90
2021/04/27 09:25:06;;;;;;;3.57;2.10;;;10.00;99.90;;;;;;5115719;28;20635;-90
2021/04/27 09:27:39;;;;;;;3.00;1.93;;;9.90;99.90;;;;;;5116652;28;20259;-90
2021/04/27 09:30:14;;;;;;;2.80;1.93;;;9.70;99.90;;;;;;5115954;28;20231;-89
2021/04/27 09:32:57;;;;;;;2.23;1.90;;;9.70;99.90;;;;;;5116146;28;20338;-89
2021/04/27 09:35:38;;;;;;;2.13;1.80;;;9.70;99.90;;;;;;5116036;28;20569;-89
2021/04/27 09:38:15;;;;;;;1.93;1.70;;;9.80;99.90;;;;;;5116028;28;20262;-89
2021/04/27 09:40:48;;;;;;;3.37;1.80;;;9.90;99.90;;;;;;5116059;28;20266;-89
2021/04/27 09:43:19;;;;;;;2.00;1.80;;;9.80;99.90;;;;;;5097855;28;20256;-89
2021/04/27 09:45:51;;;;;;;2.10;1.70;;;9.90;99.90;;;;;;5097230;28;20654;-89
2021/04/27 09:48:39;;;;;;;2.57;1.80;;;9.80;99.90;;;;;;5115989;28;20983;-90
2021/04/27 09:51:32;;;;;;;2.87;2.00;;;9.80;99.90;;;;;;5118469;28;20208;-90
2021/04/27 09:54:12;;;;;;;2.97;2.00;;;9.80;99.90;;;;;;5098616;28;20201;-90
2021/04/27 09:56:48;;;;;;;2.73;2.10;;;9.60;99.90;;;;;;5114563;28;20212;-90
2021/04/27 09:59:22;;;;;;;2.43;2.23;;;9.60;99.90;;;;;;5117989;28;20253;-90
2021/04/27 10:01:54;;;;;;;2.87;2.03;;;9.50;99.90;;;;;;5117537;28;20213;-90
2021/04/27 10:04:27;;;;;;;2.43;2.20;;;9.40;99.90;;;;;;5118320;28;20296;-90
2021/04/27 10:07:03;;;;;;;2.80;2.07;;;9.30;99.90;;;;;;5115430;28;20220;-90
2021/04/27 10:09:35;;;;;;;2.67;1.80;;;9.20;99.90;;;;;;5118976;28;20222;-89
2021/04/27 10:12:09;;;;;;;3.20;2.10;;;9.20;99.90;;;;;;5115960;28;20216;-90
2021/04/27 10:14:41;;;;;;;1.87;1.43;;;9.10;99.90;;;;;;5115509;28;20338;-90
2021/04/27 10:17:16;;;;;;;3.60;1.53;;;8.90;99.90;;;;;;5114418;28;20235;-89
2021/04/27 10:19:49;;;;;;;2.63;1.37;;;8.70;99.90;;;;;;5115126;28;20234;-89
2021/04/27 10:22:23;;;;;;;2.37;1.47;;;8.60;99.90;;;;;;5080234;28;20650;-88
2021/04/27 10:24:54;;;;;;;2.30;1.53;;;8.50;99.90;;;;;;5113623;28;20255;-89
2021/04/27 10:27:29;;;;;;;1.70;1.20;;;8.50;99.90;;;;;;5115370;28;20234;-89
2021/04/27 10:30:23;;;;;;;3.43;1.80;;;8.50;99.90;;;;;;5114901;28;20675;-90
2021/04/27 10:33:21;;;;;;;2.30;1.40;;;8.40;99.90;;;;;;5097396;28;20206;-89
2021/04/27 10:36:10;;;;;;;1.60;1.50;;;8.40;99.90;;;;;;5113717;28;20302;-88
2021/04/27 10:38:48;;;;;;;2.30;1.40;;;8.30;99.90;;;;;;5114743;28;20245;-89
2021/04/27 10:41:22;;;;;;;3.13;1.40;;;8.30;99.90;;;;;;5114559;28;20220;-89
2021/04/27 10:44:00;;;;;;;2.63;1.40;;;8.40;99.90;;;;;;5114605;28;20324;-89
2021/04/27 10:46:56;;;;;;;2.40;1.67;;;8.40;99.90;;;;;;5114660;28;20206;-90
2021/04/27 10:49:38;;;;;;;2.67;1.80;;;8.20;99.90;;;;;;5114685;28;20206;-89
2021/04/27 10:52:32;;;;;;;3.07;1.40;;;8.10;99.90;;;;;;5114578;28;20238;-91
2021/04/27 10:55:27;;;;;;;2.60;1.53;;;8.00;99.90;;;;;;5113877;28;20301;-90
2021/04/27 10:58:00;;;;;;;1.67;1.50;;;8.10;99.90;;;;;;5101449;28;20235;-90
2021/04/27 11:00:51;;;;;;;1.50;1.27;;;8.10;99.90;;;;;;5115174;28;20331;-90
2021/04/27 11:03:24;;;;;;;1.80;1.17;;;8.20;99.90;;;;;;5115021;28;20205;-90
2021/04/27 11:06:14;;;;;;;3.83;1.43;;;8.10;99.90;;;;;;5114188;28;20202;-91
2021/04/27 11:08:48;;;;;;;1.33;1.23;;;8.10;99.90;;;;;;5114786;28;20602;-89
2021/04/27 11:11:21;;;;;;;3.77;1.50;;;8.10;99.90;;;;;;5117177;28;20201;-90
2021/04/27 11:13:53;;;;;;;1.50;1.40;;;8.10;99.90;;;;;;5117719;28;20646;-90
2021/04/27 11:16:29;;;;;;;3.80;1.37;;;8.10;99.90;;;;;;5097202;28;20642;-89
2021/04/27 11:19:42;;;;;;;2.33;1.23;;;8.10;99.90;;;;;;5080244;28;20643;-89
2021/04/27 11:22:23;;;;;;;3.10;1.40;;;8.10;99.90;;;;;;5098176;28;20214;-89
2021/04/27 11:24:55;;;;;;;4.07;1.30;;;8.10;99.90;;;;;;5096751;28;20241;-89
2021/04/27 11:27:31;;;;;;;2.37;1.40;;;8.10;99.90;;;;;;5098179;28;20210;-88
2021/04/27 11:30:08;;;;;;;2.03;1.17;;;8.10;99.90;;;;;;5107213;28;20217;-89
2021/04/27 11:32:40;;;;;;;2.17;1.30;;;8.20;99.90;;;;;;5117151;28;20207;-89
2021/04/27 11:35:17;;;;;;;8.13;1.53;;;8.20;99.90;;;;;;5112857;28;20203;-89
2021/04/27 11:37:57;;;;;;;2.40;1.43;;;8.20;99.90;;;;;;5097471;28;20198;-89
2021/04/27 11:40:31;;;;;;;4.87;1.40;;;8.10;99.90;;;;;;5097383;28;20199;-89
2021/04/27 11:43:05;;;;;;;3.40;1.43;;;8.10;99.90;;;;;;5097624;28;20198;-89
2021/04/27 11:45:39;;;;;;;2.87;1.60;;;8.20;99.90;;;;;;5096982;28;20202;-89
2021/04/27 11:48:13;;;;;;;2.40;1.27;;;8.20;99.90;;;;;;5079622;28;20687;-90
2021/04/27 11:50:44;;;;;;;2.10;1.10;;;8.20;99.90;;;;;;5097591;28;20289;-90
2021/04/27 11:53:16;;;;;;;1.20;1.10;;;8.10;99.90;;;;;;5098045;28;20536;-90
2021/04/27 11:55:49;;;;;;;2.13;1.00;;;8.10;99.90;;;;;;5079179;28;20203;-90
2021/04/27 11:58:22;;;;;;;3.50;1.30;;;8.10;99.90;;;;;;5079537;28;20233;-90
2021/04/27 12:00:54;;;;;;;4.10;1.10;;;8.10;99.90;;;;;;5097135;28;20336;-90
2021/04/27 12:03:29;;;;;;;3.43;1.30;;;8.10;99.90;;;;;;5079237;28;20296;-90
2021/04/27 12:06:12;;;;;;;3.00;1.70;;;8.00;99.90;;;;;;5096217;28;20636;-90
2021/04/27 12:08:45;;;;;;;2.30;1.40;;;8.10;99.90;;;;;;5098974;28;20204;-89
2021/04/27 12:11:20;;;;;;;2.27;1.20;;;8.10;99.90;;;;;;5097096;28;20302;-90
2021/04/27 12:13:53;;;;;;;2.07;1.47;;;8.10;99.90;;;;;;5099558;28;20217;-90
2021/04/27 12:16:26;;;;;;;3.10;1.50;;;8.20;99.90;;;;;;5097435;28;20210;-89
2021/04/27 12:18:59;;;;;;;2.23;1.33;;;8.20;99.90;;;;;;5101784;28;20202;-89
2021/04/27 12:21:39;;;;;;;1.67;1.27;;;8.30;99.90;;;;;;5097742;28;20278;-89
2021/04/27 12:24:23;;;;;;;4.00;1.43;;;8.30;99.90;;;;;;5116875;28;20226;-89
2021/04/27 12:27:03;;;;;;;2.70;1.47;;;8.30;99.90;;;;;;5116688;28;20673;-89
2021/04/27 12:29:35;;;;;;;2.67;1.40;;;8.30;99.90;;;;;;5119950;28;20237;-89
2021/04/27 12:32:09;;;;;;;3.70;1.00;;;8.30;99.90;;;;;;5117824;28;20285;-89
2021/04/27 12:34:55;;;;;;;5.10;1.27;;;8.30;99.90;;;;;;5122192;28;20283;-89
2021/04/27 12:37:27;;;;;;;4.93;1.40;;;8.30;99.90;;;;;;5117438;28;20198;-89
2021/04/27 12:39:58;;;;;;;2.00;1.37;;;8.30;99.90;;;;;;5116544;28;20234;-89
2021/04/27 12:42:32;;;;;;;4.50;1.00;;;8.30;99.90;;;;;;5116691;28;20197;-88
2021/04/27 12:45:04;;;;;;;2.40;1.00;;;8.30;99.90;;;;;;5115339;28;20237;-88
2021/04/27 12:47:37;;;;;;;4.00;0.90;;;8.30;99.90;;;;;;5116435;28;20267;-90
2021/04/27 12:50:10;;;;;;;1.67;0.90;;;8.20;99.90;;;;;;5101826;28;20304;-90
2021/04/27 12:52:43;;;;;;;4.50;1.37;;;8.20;99.90;;;;;;5119587;28;20198;-90
2021/04/27 12:55:19;;;;;;;4.60;1.00;;;8.20;99.90;;;;;;5115612;28;20238;-89
2021/04/27 12:58:08;;;;;;;4.37;1.10;;;8.10;99.90;;;;;;5116639;28;20259;-89
2021/04/27 13:00:53;;;;;;;1.90;0.90;;;8.10;99.90;;;;;;5119210;28;20210;-89
2021/04/27 13:03:25;;;;;;;1.30;1.10;;;8.00;99.90;;;;;;5119994;28;20223;-90
2021/04/27 13:05:57;;;;;;;3.03;1.00;;;8.00;99.90;;;;;;5115847;28;20226;-90
2021/04/27 13:08:29;;;;;;;5.30;1.20;;;7.90;99.90;;;;;;5118796;28;20236;-90
2021/04/27 13:11:04;;;;;;;3.30;1.70;;;7.90;99.90;;;;;;5115496;28;20206;-90
2021/04/27 13:13:35;;;;;;;4.77;1.43;;;7.90;99.90;;;;;;5116146;28;20280;-90
2021/04/27 13:16:07;;;;;;;2.93;1.60;;;7.80;99.90;;;;;;5118836;28;20217;-89
2021/04/27 13:18:38;;;;;;;2.23;1.17;;;7.80;99.90;;;;;;5120366;28;20209;-89
2021/04/27 13:21:08;;;;;;;3.57;1.20;;;7.80;99.90;;;;;;5115847;28;20202;-89